sensor_id;sensor_type;location;lat;lon;timestamp;P1;durP1;ratioP1;P2;durP2;ratioP2
40707;SDS011;26392;42.696;23.350;2023-08-30T00:01:56;13.48;;;8.05;;
40707;SDS011;26392;42.696;23.350;2023-08-30T00:04:22;17.85;;;9.38;;
40707;SDS011;26392;42.696;23.350;2023-08-30T00:06:47;12.27;;;8.48;;
40707;SDS011;26392;42.696;23.350;2023-08-30T00:09:13;12.95;;;8.30;;
40707;SDS011;26392;42.696;23.350;2023-08-30T00:11:38;10.93;;;7.43;;
40707;SDS011;26392;42.696;23.350;2023-08-30T00:14:05;16.08;;;8.23;;
40707;SDS011;26392;42.696;23.350;2023-08-30T00:16:31;9.93;;;7.63;;
40707;SDS011;26392;42.696;23.350;2023-08-30T00:18:58;10.43;;;6.97;;
40707;SDS011;26392;42.696;23.350;2023-08-30T00:21:24;13.27;;;7.22;;
40707;SDS011;26392;42.696;23.350;2023-08-30T00:23:50;10.73;;;6.90;;
40707;SDS011;26392;42.696;23.350;2023-08-30T00:26:16;15.90;;;7.55;;
40707;SDS011;26392;42.696;23.350;2023-08-30T00:28:42;9.98;;;7.07;;
40707;SDS011;26392;42.696;23.350;2023-08-30T00:31:07;17.98;;;7.97;;
40707;SDS011;26392;42.696;23.350;2023-08-30T00:33:33;14.80;;;7.68;;
40707;SDS011;26392;42.696;23.350;2023-08-30T00:35:59;13.73;;;6.75;;
40707;SDS011;26392;42.696;23.350;2023-08-30T00:38:25;15.10;;;7.15;;
40707;SDS011;26392;42.696;23.350;2023-08-30T00:40:52;11.45;;;6.80;;
40707;SDS011;26392;42.696;23.350;2023-08-30T00:43:18;8.75;;;6.88;;
40707;SDS011;26392;42.696;23.350;2023-08-30T00:45:44;14.52;;;7.13;;
40707;SDS011;26392;42.696;23.350;2023-08-30T00:48:10;11.15;;;6.95;;
40707;SDS011;26392;42.696;23.350;2023-08-30T00:50:36;9.18;;;6.28;;
40707;SDS011;26392;42.696;23.350;2023-08-30T00:53:02;11.65;;;6.43;;
40707;SDS011;26392;42.696;23.350;2023-08-30T00:55:31;14.00;;;6.68;;
40707;SDS011;26392;42.696;23.350;2023-08-30T00:58:00;13.30;;;7.95;;
40707;SDS011;26392;42.696;23.350;2023-08-30T01:00:27;10.70;;;6.88;;
40707;SDS011;26392;42.696;23.350;2023-08-30T01:02:54;12.40;;;6.53;;
40707;SDS011;26392;42.696;23.350;2023-08-30T01:05:20;11.63;;;6.03;;
40707;SDS011;26392;42.696;23.350;2023-08-30T01:07:45;14.50;;;6.30;;
40707;SDS011;26392;42.696;23.350;2023-08-30T01:10:11;9.50;;;6.60;;
40707;SDS011;26392;42.696;23.350;2023-08-30T01:12:38;15.65;;;6.68;;
40707;SDS011;26392;42.696;23.350;2023-08-30T01:15:10;9.35;;;6.15;;
40707;SDS011;26392;42.696;23.350;2023-08-30T01:17:39;9.70;;;6.50;;
40707;SDS011;26392;42.696;23.350;2023-08-30T01:20:08;11.43;;;6.40;;
40707;SDS011;26392;42.696;23.350;2023-08-30T01:28:26;16.20;;;5.95;;
40707;SDS011;26392;42.696;23.350;2023-08-30T01:30:54;11.05;;;5.70;;
40707;SDS011;26392;42.696;23.350;2023-08-30T01:33:20;11.77;;;6.22;;
40707;SDS011;26392;42.696;23.350;2023-08-30T01:35:47;13.43;;;6.00;;
40707;SDS011;26392;42.696;23.350;2023-08-30T01:38:13;8.40;;;5.45;;
40707;SDS011;26392;42.696;23.350;2023-08-30T01:40:41;9.07;;;6.07;;
40707;SDS011;26392;42.696;23.350;2023-08-30T01:43:08;11.57;;;5.65;;
40707;SDS011;26392;42.696;23.350;2023-08-30T01:45:36;11.77;;;5.57;;
40707;SDS011;26392;42.696;23.350;2023-08-30T01:48:04;12.18;;;5.75;;
40707;SDS011;26392;42.696;23.350;2023-08-30T01:50:32;11.35;;;6.35;;
40707;SDS011;26392;42.696;23.350;2023-08-30T01:52:59;11.80;;;6.18;;
40707;SDS011;26392;42.696;23.350;2023-08-30T01:55:25;8.10;;;6.30;;
40707;SDS011;26392;42.696;23.350;2023-08-30T01:57:53;10.57;;;5.70;;
40707;SDS011;26392;42.696;23.350;2023-08-30T02:00:19;9.45;;;6.35;;
40707;SDS011;26392;42.696;23.350;2023-08-30T02:02:45;9.48;;;6.38;;
40707;SDS011;26392;42.696;23.350;2023-08-30T02:05:11;18.48;;;7.55;;
40707;SDS011;26392;42.696;23.350;2023-08-30T02:10:48;11.77;;;6.38;;
40707;SDS011;26392;42.696;23.350;2023-08-30T02:13:18;10.43;;;7.15;;
40707;SDS011;26392;42.696;23.350;2023-08-30T02:15:50;11.90;;;6.97;;
40707;SDS011;26392;42.696;23.350;2023-08-30T02:18:16;10.40;;;6.40;;
40707;SDS011;26392;42.696;23.350;2023-08-30T02:20:43;12.82;;;7.03;;
40707;SDS011;26392;42.696;23.350;2023-08-30T02:23:09;10.85;;;7.15;;
40707;SDS011;26392;42.696;23.350;2023-08-30T02:25:35;13.45;;;6.78;;
40707;SDS011;26392;42.696;23.350;2023-08-30T02:28:00;8.57;;;6.15;;
40707;SDS011;26392;42.696;23.350;2023-08-30T02:30:25;11.45;;;6.85;;
40707;SDS011;26392;42.696;23.350;2023-08-30T02:32:51;14.13;;;7.32;;
40707;SDS011;26392;42.696;23.350;2023-08-30T02:35:16;12.90;;;7.05;;
40707;SDS011;26392;42.696;23.350;2023-08-30T02:37:42;11.88;;;6.85;;
40707;SDS011;26392;42.696;23.350;2023-08-30T02:40:08;12.15;;;6.35;;
40707;SDS011;26392;42.696;23.350;2023-08-30T02:42:34;10.00;;;6.38;;
40707;SDS011;26392;42.696;23.350;2023-08-30T02:44:59;12.82;;;7.03;;
40707;SDS011;26392;42.696;23.350;2023-08-30T02:47:25;11.55;;;6.38;;
40707;SDS011;26392;42.696;23.350;2023-08-30T02:49:50;13.30;;;6.78;;
40707;SDS011;26392;42.696;23.350;2023-08-30T02:52:16;10.85;;;6.72;;
40707;SDS011;26392;42.696;23.350;2023-08-30T02:54:42;11.45;;;6.95;;
40707;SDS011;26392;42.696;23.350;2023-08-30T02:57:08;12.43;;;7.38;;
40707;SDS011;26392;42.696;23.350;2023-08-30T02:59:33;11.45;;;7.07;;
40707;SDS011;26392;42.696;23.350;2023-08-30T03:01:59;9.90;;;6.60;;
40707;SDS011;26392;42.696;23.350;2023-08-30T03:04:24;11.82;;;6.65;;
40707;SDS011;26392;42.696;23.350;2023-08-30T03:06:50;14.45;;;6.97;;
40707;SDS011;26392;42.696;23.350;2023-08-30T03:09:15;15.52;;;7.20;;
40707;SDS011;26392;42.696;23.350;2023-08-30T03:11:41;9.38;;;6.57;;
40707;SDS011;26392;42.696;23.350;2023-08-30T03:14:06;15.18;;;7.25;;
40707;SDS011;26392;42.696;23.350;2023-08-30T03:16:31;15.90;;;8.07;;
40707;SDS011;26392;42.696;23.350;2023-08-30T03:18:57;15.00;;;7.75;;
40707;SDS011;26392;42.696;23.350;2023-08-30T03:21:22;13.95;;;7.75;;
40707;SDS011;26392;42.696;23.350;2023-08-30T03:23:48;13.15;;;8.50;;
40707;SDS011;26392;42.696;23.350;2023-08-30T03:26:14;18.80;;;8.73;;
40707;SDS011;26392;42.696;23.350;2023-08-30T03:28:41;16.30;;;8.48;;
40707;SDS011;26392;42.696;23.350;2023-08-30T03:31:17;20.15;;;10.32;;
40707;SDS011;26392;42.696;23.350;2023-08-30T03:33:46;20.40;;;9.98;;
40707;SDS011;26392;42.696;23.350;2023-08-30T03:36:16;17.10;;;10.68;;
40707;SDS011;26392;42.696;23.350;2023-08-30T03:38:43;19.73;;;10.88;;
40707;SDS011;26392;42.696;23.350;2023-08-30T03:41:10;24.58;;;12.52;;
40707;SDS011;26392;42.696;23.350;2023-08-30T03:43:36;19.17;;;11.95;;
40707;SDS011;26392;42.696;23.350;2023-08-30T03:46:01;22.63;;;12.13;;
40707;SDS011;26392;42.696;23.350;2023-08-30T03:48:28;22.23;;;12.20;;
40707;SDS011;26392;42.696;23.350;2023-08-30T03:50:54;27.30;;;14.18;;
40707;SDS011;26392;42.696;23.350;2023-08-30T03:53:20;21.35;;;12.60;;
40707;SDS011;26392;42.696;23.350;2023-08-30T03:55:45;19.38;;;11.93;;
40707;SDS011;26392;42.696;23.350;2023-08-30T03:58:11;17.02;;;10.80;;
40707;SDS011;26392;42.696;23.350;2023-08-30T04:00:37;18.45;;;11.25;;
40707;SDS011;26392;42.696;23.350;2023-08-30T04:03:03;18.13;;;11.98;;
40707;SDS011;26392;42.696;23.350;2023-08-30T04:05:36;17.30;;;11.13;;
40707;SDS011;26392;42.696;23.350;2023-08-30T04:08:02;20.83;;;10.65;;
40707;SDS011;26392;42.696;23.350;2023-08-30T04:10:28;22.23;;;11.27;;
40707;SDS011;26392;42.696;23.350;2023-08-30T04:12:54;22.25;;;11.50;;
40707;SDS011;26392;42.696;23.350;2023-08-30T04:15:19;22.70;;;11.38;;
40707;SDS011;26392;42.696;23.350;2023-08-30T04:17:45;19.15;;;10.93;;
40707;SDS011;26392;42.696;23.350;2023-08-30T04:20:10;25.85;;;11.95;;
40707;SDS011;26392;42.696;23.350;2023-08-30T04:22:36;18.10;;;10.95;;
40707;SDS011;26392;42.696;23.350;2023-08-30T04:25:02;16.33;;;10.10;;
40707;SDS011;26392;42.696;23.350;2023-08-30T04:27:29;18.10;;;9.82;;
40707;SDS011;26392;42.696;23.350;2023-08-30T04:29:54;18.83;;;9.63;;
40707;SDS011;26392;42.696;23.350;2023-08-30T04:32:20;16.35;;;9.50;;
40707;SDS011;26392;42.696;23.350;2023-08-30T04:34:45;20.48;;;10.18;;
40707;SDS011;26392;42.696;23.350;2023-08-30T04:37:11;19.45;;;9.98;;
40707;SDS011;26392;42.696;23.350;2023-08-30T04:39:36;21.23;;;10.60;;
40707;SDS011;26392;42.696;23.350;2023-08-30T04:42:02;34.42;;;10.13;;
40707;SDS011;26392;42.696;23.350;2023-08-30T04:44:28;19.77;;;10.32;;
40707;SDS011;26392;42.696;23.350;2023-08-30T04:46:54;15.93;;;9.52;;
40707;SDS011;26392;42.696;23.350;2023-08-30T04:49:20;13.40;;;8.70;;
40707;SDS011;26392;42.696;23.350;2023-08-30T04:51:47;12.25;;;8.77;;
40707;SDS011;26392;42.696;23.350;2023-08-30T04:54:12;17.10;;;8.60;;
40707;SDS011;26392;42.696;23.350;2023-08-30T04:56:39;15.23;;;8.30;;
40707;SDS011;26392;42.696;23.350;2023-08-30T04:59:04;13.90;;;8.43;;
40707;SDS011;26392;42.696;23.350;2023-08-30T05:01:30;15.23;;;9.10;;
40707;SDS011;26392;42.696;23.350;2023-08-30T05:03:55;16.25;;;10.00;;
40707;SDS011;26392;42.696;23.350;2023-08-30T05:06:21;16.67;;;10.65;;
40707;SDS011;26392;42.696;23.350;2023-08-30T05:08:46;16.08;;;10.27;;
40707;SDS011;26392;42.696;23.350;2023-08-30T05:11:12;18.17;;;11.40;;
40707;SDS011;26392;42.696;23.350;2023-08-30T05:13:38;17.92;;;11.57;;
40707;SDS011;26392;42.696;23.350;2023-08-30T05:16:04;23.30;;;11.98;;
40707;SDS011;26392;42.696;23.350;2023-08-30T05:18:29;19.50;;;12.02;;
40707;SDS011;26392;42.696;23.350;2023-08-30T05:20:54;17.95;;;10.70;;
40707;SDS011;26392;42.696;23.350;2023-08-30T05:23:20;18.80;;;11.27;;
40707;SDS011;26392;42.696;23.350;2023-08-30T05:25:45;14.70;;;6.97;;
40707;SDS011;26392;42.696;23.350;2023-08-30T05:28:11;12.98;;;7.88;;
40707;SDS011;26392;42.696;23.350;2023-08-30T05:30:38;15.98;;;7.57;;
40707;SDS011;26392;42.696;23.350;2023-08-30T05:33:06;13.18;;;6.68;;
40707;SDS011;26392;42.696;23.350;2023-08-30T05:35:32;15.50;;;7.00;;
40707;SDS011;26392;42.696;23.350;2023-08-30T05:37:57;16.80;;;7.38;;
40707;SDS011;26392;42.696;23.350;2023-08-30T05:40:22;14.57;;;6.72;;
40707;SDS011;26392;42.696;23.350;2023-08-30T05:42:48;18.55;;;8.18;;
40707;SDS011;26392;42.696;23.350;2023-08-30T05:45:15;13.20;;;6.45;;
40707;SDS011;26392;42.696;23.350;2023-08-30T05:47:41;8.48;;;4.63;;
40707;SDS011;26392;42.696;23.350;2023-08-30T05:50:06;7.47;;;3.80;;
40707;SDS011;26392;42.696;23.350;2023-08-30T05:52:32;8.77;;;4.45;;
40707;SDS011;26392;42.696;23.350;2023-08-30T05:54:58;10.82;;;5.03;;
40707;SDS011;26392;42.696;23.350;2023-08-30T05:57:23;12.30;;;4.60;;
40707;SDS011;26392;42.696;23.350;2023-08-30T05:59:50;7.97;;;4.20;;
40707;SDS011;26392;42.696;23.350;2023-08-30T06:02:16;11.40;;;4.90;;
40707;SDS011;26392;42.696;23.350;2023-08-30T06:04:42;8.20;;;3.97;;
40707;SDS011;26392;42.696;23.350;2023-08-30T06:07:07;11.20;;;4.30;;
40707;SDS011;26392;42.696;23.350;2023-08-30T06:09:33;8.93;;;4.57;;
40707;SDS011;26392;42.696;23.350;2023-08-30T06:11:58;7.57;;;4.95;;
40707;SDS011;26392;42.696;23.350;2023-08-30T06:14:24;7.85;;;4.45;;
40707;SDS011;26392;42.696;23.350;2023-08-30T06:16:49;11.57;;;4.97;;
40707;SDS011;26392;42.696;23.350;2023-08-30T06:19:15;15.52;;;4.70;;
40707;SDS011;26392;42.696;23.350;2023-08-30T06:21:40;10.60;;;4.43;;
40707;SDS011;26392;42.696;23.350;2023-08-30T06:24:05;8.77;;;4.78;;
40707;SDS011;26392;42.696;23.350;2023-08-30T06:26:31;10.98;;;4.68;;
40707;SDS011;26392;42.696;23.350;2023-08-30T06:28:56;11.15;;;4.50;;
40707;SDS011;26392;42.696;23.350;2023-08-30T06:31:22;14.48;;;5.00;;
40707;SDS011;26392;42.696;23.350;2023-08-30T06:33:47;13.57;;;4.63;;
40707;SDS011;26392;42.696;23.350;2023-08-30T06:36:13;10.90;;;5.00;;
40707;SDS011;26392;42.696;23.350;2023-08-30T06:38:41;8.15;;;4.95;;
40707;SDS011;26392;42.696;23.350;2023-08-30T06:41:06;11.15;;;5.38;;
40707;SDS011;26392;42.696;23.350;2023-08-30T06:43:32;16.70;;;5.10;;
40707;SDS011;26392;42.696;23.350;2023-08-30T06:45:58;10.07;;;4.78;;
40707;SDS011;26392;42.696;23.350;2023-08-30T06:48:24;11.57;;;4.80;;
40707;SDS011;26392;42.696;23.350;2023-08-30T06:50:50;8.38;;;4.50;;
40707;SDS011;26392;42.696;23.350;2023-08-30T06:53:15;13.50;;;4.90;;
40707;SDS011;26392;42.696;23.350;2023-08-30T06:55:40;18.60;;;5.43;;
40707;SDS011;26392;42.696;23.350;2023-08-30T06:58:06;10.25;;;4.55;;
40707;SDS011;26392;42.696;23.350;2023-08-30T07:00:31;10.05;;;4.65;;
40707;SDS011;26392;42.696;23.350;2023-08-30T07:02:57;14.18;;;5.00;;
40707;SDS011;26392;42.696;23.350;2023-08-30T07:05:23;15.05;;;4.45;;
40707;SDS011;26392;42.696;23.350;2023-08-30T07:07:48;9.32;;;4.50;;
40707;SDS011;26392;42.696;23.350;2023-08-30T07:10:14;8.60;;;4.53;;
40707;SDS011;26392;42.696;23.350;2023-08-30T07:12:39;7.13;;;4.43;;
40707;SDS011;26392;42.696;23.350;2023-08-30T07:15:05;10.27;;;4.68;;
40707;SDS011;26392;42.696;23.350;2023-08-30T07:17:30;10.43;;;4.75;;
40707;SDS011;26392;42.696;23.350;2023-08-30T07:19:56;12.93;;;4.85;;
40707;SDS011;26392;42.696;23.350;2023-08-30T07:22:21;19.48;;;5.30;;
40707;SDS011;26392;42.696;23.350;2023-08-30T07:24:47;14.75;;;5.07;;
40707;SDS011;26392;42.696;23.350;2023-08-30T07:27:12;9.68;;;4.65;;
40707;SDS011;26392;42.696;23.350;2023-08-30T07:29:38;9.07;;;5.03;;
40707;SDS011;26392;42.696;23.350;2023-08-30T07:32:06;19.33;;;5.30;;
40707;SDS011;26392;42.696;23.350;2023-08-30T07:34:31;7.75;;;4.43;;
40707;SDS011;26392;42.696;23.350;2023-08-30T07:36:57;13.07;;;5.45;;
40707;SDS011;26392;42.696;23.350;2023-08-30T07:39:22;11.70;;;5.97;;
40707;SDS011;26392;42.696;23.350;2023-08-30T07:41:48;15.77;;;6.80;;
40707;SDS011;26392;42.696;23.350;2023-08-30T07:44:13;8.52;;;4.80;;
40707;SDS011;26392;42.696;23.350;2023-08-30T07:46:39;17.10;;;5.40;;
40707;SDS011;26392;42.696;23.350;2023-08-30T07:49:04;11.88;;;5.30;;
40707;SDS011;26392;42.696;23.350;2023-08-30T07:51:30;11.05;;;4.75;;
40707;SDS011;26392;42.696;23.350;2023-08-30T07:53:56;10.18;;;4.65;;
40707;SDS011;26392;42.696;23.350;2023-08-30T07:56:22;12.77;;;5.43;;
40707;SDS011;26392;42.696;23.350;2023-08-30T07:58:47;13.15;;;4.82;;
40707;SDS011;26392;42.696;23.350;2023-08-30T08:01:12;11.18;;;5.18;;
40707;SDS011;26392;42.696;23.350;2023-08-30T08:03:38;10.63;;;5.50;;
40707;SDS011;26392;42.696;23.350;2023-08-30T08:06:03;9.55;;;4.53;;
40707;SDS011;26392;42.696;23.350;2023-08-30T08:08:29;10.35;;;4.15;;
40707;SDS011;26392;42.696;23.350;2023-08-30T08:10:54;9.82;;;4.70;;
40707;SDS011;26392;42.696;23.350;2023-08-30T08:13:20;8.30;;;4.57;;
40707;SDS011;26392;42.696;23.350;2023-08-30T08:15:45;9.05;;;4.97;;
40707;SDS011;26392;42.696;23.350;2023-08-30T08:18:11;9.45;;;4.68;;
40707;SDS011;26392;42.696;23.350;2023-08-30T08:20:36;13.82;;;4.68;;
40707;SDS011;26392;42.696;23.350;2023-08-30T08:23:02;8.05;;;4.38;;
40707;SDS011;26392;42.696;23.350;2023-08-30T08:25:28;9.70;;;4.03;;
40707;SDS011;26392;42.696;23.350;2023-08-30T08:27:53;19.20;;;4.28;;
40707;SDS011;26392;42.696;23.350;2023-08-30T08:30:19;7.82;;;3.30;;
40707;SDS011;26392;42.696;23.350;2023-08-30T08:32:45;7.07;;;3.35;;
40707;SDS011;26392;42.696;23.350;2023-08-30T08:35:12;6.75;;;3.50;;
40707;SDS011;26392;42.696;23.350;2023-08-30T08:37:38;5.68;;;2.90;;
40707;SDS011;26392;42.696;23.350;2023-08-30T08:40:04;10.18;;;3.75;;
40707;SDS011;26392;42.696;23.350;2023-08-30T08:42:33;5.05;;;3.20;;
40707;SDS011;26392;42.696;23.350;2023-08-30T08:44:59;6.50;;;3.10;;
40707;SDS011;26392;42.696;23.350;2023-08-30T08:47:27;5.60;;;3.20;;
40707;SDS011;26392;42.696;23.350;2023-08-30T08:49:55;9.77;;;3.42;;
40707;SDS011;26392;42.696;23.350;2023-08-30T08:52:20;7.22;;;3.33;;
40707;SDS011;26392;42.696;23.350;2023-08-30T08:54:46;6.53;;;3.10;;
40707;SDS011;26392;42.696;23.350;2023-08-30T08:57:12;5.50;;;3.25;;
40707;SDS011;26392;42.696;23.350;2023-08-30T08:59:38;9.25;;;3.30;;
40707;SDS011;26392;42.696;23.350;2023-08-30T09:02:03;9.55;;;3.90;;
40707;SDS011;26392;42.696;23.350;2023-08-30T09:04:30;7.95;;;3.30;;
40707;SDS011;26392;42.696;23.350;2023-08-30T09:07:00;9.10;;;3.65;;
40707;SDS011;26392;42.696;23.350;2023-08-30T09:09:26;7.80;;;4.00;;
40707;SDS011;26392;42.696;23.350;2023-08-30T09:11:52;9.02;;;3.92;;
40707;SDS011;26392;42.696;23.350;2023-08-30T09:14:18;7.03;;;3.80;;
40707;SDS011;26392;42.696;23.350;2023-08-30T09:19:39;7.97;;;3.47;;
40707;SDS011;26392;42.696;23.350;2023-08-30T09:22:04;5.97;;;3.17;;
40707;SDS011;26392;42.696;23.350;2023-08-30T09:24:39;6.80;;;3.20;;
40707;SDS011;26392;42.696;23.350;2023-08-30T09:27:05;7.75;;;3.40;;
40707;SDS011;26392;42.696;23.350;2023-08-30T09:29:31;9.00;;;3.63;;
40707;SDS011;26392;42.696;23.350;2023-08-30T09:31:56;8.57;;;3.92;;
40707;SDS011;26392;42.696;23.350;2023-08-30T09:34:25;7.40;;;3.78;;
40707;SDS011;26392;42.696;23.350;2023-08-30T09:36:51;7.20;;;3.97;;
40707;SDS011;26392;42.696;23.350;2023-08-30T09:39:17;7.43;;;3.60;;
40707;SDS011;26392;42.696;23.350;2023-08-30T09:41:46;7.28;;;3.30;;
40707;SDS011;26392;42.696;23.350;2023-08-30T09:44:14;7.65;;;3.55;;
40707;SDS011;26392;42.696;23.350;2023-08-30T09:49:18;10.40;;;4.05;;
40707;SDS011;26392;42.696;23.350;2023-08-30T09:51:46;7.28;;;3.80;;
40707;SDS011;26392;42.696;23.350;2023-08-30T09:59:17;7.95;;;3.70;;
40707;SDS011;26392;42.696;23.350;2023-08-30T10:01:43;8.20;;;4.40;;
40707;SDS011;26392;42.696;23.350;2023-08-30T10:04:09;9.50;;;4.13;;
40707;SDS011;26392;42.696;23.350;2023-08-30T10:06:35;6.25;;;3.88;;
40707;SDS011;26392;42.696;23.350;2023-08-30T10:09:02;5.75;;;3.90;;
40707;SDS011;26392;42.696;23.350;2023-08-30T10:11:29;5.80;;;3.85;;
